ENEV/EVE METAR and TAF weather

Enter ICAO airport designator
Station Type Date Time Source
ENEV METAR 2019/02/20 23:20 UTC NOAA

ENEV 202320Z AUTO 21004KT 140V250 9999 OVC088/// M08/M12 Q1018 RMK WIND 1400FT 13008KT


Station Type Date Time Source
ENEV Decoded METAR 2019/02/20 23:20 UTC NOAA

Evenes, Norway (ENEV) 68-31N 016-41E 26M
Feb 20, 2019 - 06:20 PM EST / 2019.02.20 2320 UTC
Wind: from the SSW (210 degrees) at 5 MPH (4 KT) (direction variable):0
Visibility: greater than 7 mile(s):0
Sky conditions: overcast
Temperature: 17 F (-8 C)
Windchill: 8 F (-13 C):1
Dew Point: 10 F (-12 C)
Relative Humidity: 72%
Pressure (altimeter): 30.06 in. Hg (1018 hPa)
ob: ENEV 202320Z AUTO 21004KT 140V250 9999 OVC088/// M08/M12 Q1018 RMK WIND 1400FT 13008KT
cycle: 23

Station Type Date Time Source
ENEV TAF 2010/02/05 07:50 UTC NOAA

METAR ENEV 050750Z 14007KT 9999 FEW040 SCT055 M04/M09 Q1019


Example: see airport list